| time (UTC) | temp C | wind direction | speed KPH | gust KPH | rain 1hr cm | rain 24hr cm | rain mn cm | humidity % | barometer mb |
| 20260510164821 | 25 | 26 | 0.0 | 3.2 | 0.00 | 0.00 | 0.00 | 80 | 1016.5 |
| 20260510164318 | 24 | 81 | 1.6 | 3.2 | 0.00 | 0.00 | 0.00 | 81 | 1016.3 |
| 20260510163818 | 25 | 56 | 1.6 | 3.2 | 0.00 | 0.00 | 0.00 | 80 | 1016.4 |
| 20260510163314 | 25 | 77 | 3.2 | 4.8 | 0.00 | 0.00 | 0.00 | 77 | 1016.2 |
| 20260510162814 | 25 | 47 | 0.0 | 0.0 | 0.00 | 0.00 | 0.00 | 80 | 1016.6 |
| 20260510162311 | 25 | 317 | 0.0 | 3.2 | 0.00 | 0.00 | 0.00 | 80 | 1016.3 |
| 20260510161807 | 23 | 119 | 1.6 | 3.2 | 0.00 | 0.00 | 0.00 | 84 | 1016.4 |
| 20260510161303 | 23 | 122 | 0.0 | 3.2 | 0.00 | 0.00 | 0.00 | 82 | 1016.4 |
| 20260510160800 | 24 | 114 | 4.8 | 4.8 | 0.00 | 0.00 | 0.00 | 81 | 1016.3 |
| 20260510160256 | 24 | 23 | 4.8 | 8.0 | 0.00 | 0.00 | 0.00 | 80 | 1016.3 |
| 20260510155751 | 24 | 28 | 0.0 | 0.0 | 0.00 | 0.00 | 0.00 | 82 | 1016.2 |
| 20260510155248 | 23 | 29 | 0.0 | 3.2 | 0.00 | 0.00 | 0.00 | 81 | 1016.4 |
| 20260510154743 | 24 | 31 | 0.0 | 3.2 | 0.00 | 0.00 | 0.00 | 85 | 1016.5 |
| 20260510154240 | 23 | 32 | 3.2 | 3.2 | 0.00 | 0.00 | 0.00 | 84 | 1016.3 |
| 20260510153735 | 23 | 31 | 3.2 | 3.2 | 0.00 | 0.00 | 0.00 | 85 | 1016.6 |
| 20260510153231 | 22 | 39 | 1.6 | 3.2 | 0.00 | 0.00 | 0.00 | 85 | 1016.4 |
| 20260510152728 | 22 | 22 | 0.0 | 3.2 | 0.00 | 0.00 | 0.00 | 86 | 1016.4 |
| 20260510152223 | 22 | 28 | 4.8 | 8.0 | 0.00 | 0.00 | 0.00 | 84 | 1016.7 |
| 20260510151720 | 23 | 51 | 3.2 | 3.2 | 0.00 | 0.00 | 0.00 | 85 | 1016.4 |
| 20260510151219 | 22 | 56 | 0.0 | 3.2 | 0.00 | 0.00 | 0.00 | 88 | 1016.7 |
| 20260510150715 | 22 | 44 | 1.6 | 3.2 | 0.00 | 0.00 | 0.00 | 89 | 1016.7 |
| 20260510150210 | 21 | 46 | 3.2 | 4.8 | 0.00 | 0.00 | 0.00 | 89 | 1016.7 |
| 20260510145706 | 21 | 46 | 3.2 | 3.2 | 0.00 | 0.00 | 0.00 | 88 | 1016.9 |
| 20260510145203 | 21 | 145 | 0.0 | 3.2 | 0.00 | 0.00 | 0.00 | 89 | 1016.6 |
| 20260510144659 | 21 | 60 | 1.6 | 3.2 | 0.00 | 0.00 | 0.00 | 89 | 1016.6 |
| 20260510144156 | 21 | 59 | 0.0 | 3.2 | 0.00 | 0.00 | 0.00 | 92 | 1016.6 |
| 20260510143651 | 21 | 60 | 3.2 | 3.2 | 0.00 | 0.00 | 0.00 | 91 | 1016.6 |
| 20260510143148 | 21 | 73 | 0.0 | 3.2 | 0.00 | 0.00 | 0.00 | 92 | 1016.8 |
| 20260510142644 | 21 | 55 | 0.0 | 0.0 | 0.00 | 0.00 | 0.00 | 92 | 1016.6 |
| 20260510142141 | 20 | 55 | 4.8 | 4.8 | 0.00 | 0.00 | 0.00 | 92 | 1016.6 |
| 20260510141637 | 20 | 99 | 0.0 | 0.0 | 0.00 | 0.00 | 0.00 | 94 | 1016.4 |
| 20260510141136 | 20 | 72 | 3.2 | 4.8 | 0.00 | 0.00 | 0.00 | 94 | 1016.4 |
| 20260510140632 | 20 | 73 | 3.2 | 3.2 | 0.00 | 0.00 | 0.00 | 95 | 1016.2 |
| 20260510140131 | 20 | 86 | 0.0 | 0.0 | 0.00 | 0.00 | 0.00 | 95 | 1016.1 |
| 20260510135627 | 20 | 86 | 0.0 | 0.0 | 0.00 | 0.00 | 0.00 | 95 | 1016.3 |
| 20260510135123 | 20 | 88 | 3.2 | 3.2 | 0.00 | 0.00 | 0.00 | 96 | 1015.9 |
| 20260510134620 | 20 | 107 | 0.0 | 0.0 | 0.00 | 0.00 | 0.00 | 97 | 1015.8 |
| 20260510134117 | 19 | 107 | 0.0 | 0.0 | 0.00 | 0.00 | 0.00 | 97 | 1015.9 |
| 20260510133614 | 19 | 107 | 0.0 | 0.0 | 0.00 | 0.00 | 0.00 | 97 | 1015.9 |
| 20260510133109 | 18 | 109 | 0.0 | 0.0 | 0.00 | 0.00 | 0.00 | 97 | 1016.1 |
| 20260510132606 | 19 | 98 | 0.0 | 0.0 | 0.00 | 0.00 | 0.00 | 97 | 1016.1 |
| 20260510132103 | 19 | 95 | 0.0 | 0.0 | 0.00 | 0.00 | 0.00 | 98 | 1016.2 |
| 20260510131600 | 18 | 95 | 0.0 | 0.0 | 0.00 | 0.00 | 0.00 | 98 | 1016.1 |
| 20260510131058 | 18 | 95 | 0.0 | 0.0 | 0.00 | 0.00 | 0.00 | 98 | 1016.1 |
| 20260510130554 | 18 | 94 | 0.0 | 0.0 | 0.00 | 0.00 | 0.00 | 98 | 1016.2 |
| 20260510130052 | 18 | 94 | 0.0 | 0.0 | 0.00 | 0.00 | 0.00 | 98 | 1016.4 |
| 20260510125547 | 18 | 94 | 0.0 | 0.0 | 0.00 | 0.00 | 0.00 | 98 | 1015.9 |
| 20260510125044 | 18 | 94 | 0.0 | 0.0 | 0.00 | 0.00 | 0.00 | 98 | 1016.1 |
| 20260510124541 | 18 | 94 | 0.0 | 0.0 | 0.00 | 0.00 | 0.00 | 98 | 1016.3 |
| 20260510124038 | 18 | 98 | 0.0 | 0.0 | 0.00 | 0.00 | 0.00 | 98 | 1015.9 |
| 20260510123533 | 18 | 98 | 0.0 | 0.0 | 0.00 | 0.00 | 0.00 | 98 | 1016.1 |
| 20260510123029 | 18 | 136 | 0.0 | 0.0 | 0.00 | 0.00 | 0.00 | 98 | 1015.7 |
| 20260510122525 | 18 | 136 | 0.0 | 0.0 | 0.00 | 0.00 | 0.00 | 98 | 1015.8 |
| 20260510122021 | 18 | 135 | 0.0 | 0.0 | 0.00 | 0.00 | 0.00 | 98 | 1015.7 |
| 20260510121519 | 18 | 135 | 0.0 | 0.0 | 0.00 | 0.00 | 0.00 | 98 | 1015.5 |
| 20260510121016 | 18 | 135 | 0.0 | 0.0 | 0.00 | 0.00 | 0.00 | 98 | 1015.4 |
| 20260510120513 | 18 | 135 | 0.0 | 0.0 | 0.00 | 0.00 | 0.00 | 98 | 1015.3 |
| 20260510120009 | 18 | 135 | 0.0 | 0.0 | 0.00 | 0.00 | 0.00 | 98 | 1015.4 |
| 20260510115506 | 18 | 135 | 0.0 | 0.0 | 0.00 | 0.00 | 0.00 | 98 | 1015.2 |
| 20260510115002 | 17 | 135 | 0.0 | 0.0 | 0.00 | 0.00 | 0.00 | 98 | 1015.3 |
| 20260510114459 | 17 | 135 | 0.0 | 0.0 | 0.00 | 0.00 | 0.00 | 98 | 1015.0 |
| 20260510113954 | 17 | 135 | 0.0 | 0.0 | 0.00 | 0.00 | 0.00 | 98 | 1015.3 |
| 20260510113450 | 17 | 133 | 0.0 | 0.0 | 0.00 | 0.00 | 0.00 | 98 | 1015.0 |
| 20260510112948 | 17 | 140 | 0.0 | 0.0 | 0.00 | 0.00 | 0.00 | 98 | 1014.7 |
| 20260510112445 | 17 | 142 | 0.0 | 0.0 | 0.00 | 0.00 | 0.00 | 98 | 1014.7 |
| 20260510111941 | 17 | 142 | 0.0 | 0.0 | 0.00 | 0.00 | 0.00 | 98 | 1014.7 |
| 20260510111437 | 17 | 126 | 0.0 | 0.0 | 0.00 | 0.00 | 0.00 | 98 | 1014.5 |
| 20260510110933 | 17 | 123 | 0.0 | 0.0 | 0.00 | 0.00 | 0.00 | 98 | 1014.5 |
| 20260510110429 | 17 | 123 | 0.0 | 0.0 | 0.00 | 0.00 | 0.00 | 98 | 1014.2 |
| 20260510105925 | 17 | 123 | 0.0 | 0.0 | 0.00 | 0.00 | 0.00 | 98 | 1014.1 |
| 20260510105421 | 17 | 123 | 0.0 | 0.0 | 0.00 | 0.00 | 0.00 | 98 | 1014.0 |
| 20260510104916 | 17 | 117 | 0.0 | 0.0 | 0.00 | 0.00 | 0.00 | 98 | 1013.9 |
| 20260510104414 | 17 | 135 | 0.0 | 0.0 | 0.00 | 0.00 | 0.00 | 98 | 1014.3 |
| 20260510103910 | 17 | 117 | 0.0 | 3.2 | 0.00 | 0.00 | 0.00 | 98 | 1013.9 |
| 20260510103407 | 17 | 143 | 3.2 | 4.8 | 0.00 | 0.00 | 0.00 | 98 | 1014.0 |
| 20260510102902 | 17 | 139 | 3.2 | 4.8 | 0.00 | 0.00 | 0.00 | 98 | 1013.9 |
| 20260510102358 | 18 | 113 | 0.0 | 0.0 | 0.00 | 0.00 | 0.00 | 98 | 1013.9 |
| 20260510101856 | 17 | 139 | 0.0 | 0.0 | 0.00 | 0.00 | 0.00 | 98 | 1013.7 |
| 20260510101354 | 17 | 127 | 0.0 | 0.0 | 0.00 | 0.00 | 0.00 | 98 | 1013.6 |
| 20260510100850 | 17 | 152 | 4.8 | 4.8 | 0.00 | 0.00 | 0.00 | 98 | 1013.4 |
| 20260510100348 | 18 | 129 | 0.0 | 0.0 | 0.00 | 0.00 | 0.00 | 98 | 1013.4 |
| 20260510095844 | 18 | 109 | 0.0 | 0.0 | 0.00 | 0.00 | 0.00 | 98 | 1013.4 |
| 20260510095338 | 17 | 102 | 0.0 | 3.2 | 0.00 | 0.00 | 0.00 | 98 | 1013.5 |
| 20260510094839 | 17 | 133 | 0.0 | 0.0 | 0.00 | 0.00 | 0.00 | 98 | 1013.3 |
| 20260510094334 | 17 | 124 | 0.0 | 3.2 | 0.00 | 0.00 | 0.00 | 98 | 1013.1 |
| 20260510093831 | 17 | 120 | 4.8 | 4.8 | 0.00 | 0.00 | 0.00 | 98 | 1013.3 |
| 20260510093326 | 17 | 151 | 0.0 | 0.0 | 0.00 | 0.00 | 0.00 | 98 | 1013.2 |
| 20260510092823 | 17 | 160 | 3.2 | 4.8 | 0.00 | 0.00 | 0.00 | 98 | 1013.4 |
| 20260510092318 | 17 | 102 | 0.0 | 0.0 | 0.00 | 0.00 | 0.00 | 98 | 1013.4 |
| 20260510091815 | 18 | 124 | 0.0 | 0.0 | 0.00 | 0.00 | 0.00 | 98 | 1013.3 |
| 20260510091312 | 18 | 124 | 0.0 | 0.0 | 0.00 | 0.00 | 0.00 | 98 | 1013.1 |
| 20260510090808 | 18 | 151 | 4.8 | 4.8 | 0.00 | 0.00 | 0.00 | 98 | 1013.1 |
| 20260510090305 | 18 | 131 | 0.0 | 0.0 | 0.00 | 0.00 | 0.00 | 98 | 1013.0 |
| 20260510085755 | 18 | 136 | 0.0 | 0.0 | 0.00 | 0.00 | 0.00 | 98 | 1012.9 |
| 20260510085254 | 18 | 163 | 8.0 | 8.0 | 0.00 | 0.00 | 0.00 | 98 | 1012.6 |
| 20260510084751 | 18 | 155 | 0.0 | 0.0 | 0.00 | 0.00 | 0.00 | 98 | 1012.7 |
| 20260510084248 | 18 | 155 | 0.0 | 0.0 | 0.00 | 0.00 | 0.00 | 98 | 1013.0 |
| 20260510083744 | 18 | 155 | 0.0 | 0.0 | 0.00 | 0.00 | 0.00 | 98 | 1012.6 |
| 20260510083242 | 18 | 155 | 0.0 | 0.0 | 0.00 | 0.00 | 0.00 | 98 | 1012.5 |
| 20260510082737 | 18 | 155 | 0.0 | 0.0 | 0.00 | 0.00 | 0.00 | 97 | 1012.5 |
| 20260510082234 | 18 | 155 | 0.0 | 0.0 | 0.00 | 0.00 | 0.00 | 97 | 1012.4 |
| 20260510081733 | 18 | 155 | 0.0 | 0.0 | 0.00 | 0.00 | 0.00 | 97 | 1012.4 |
| 20260510081229 | 18 | 155 | 0.0 | 0.0 | 0.00 | 0.00 | 0.00 | 97 | 1012.4 |
| 20260510080724 | 18 | 155 | 0.0 | 0.0 | 0.00 | 0.00 | 0.00 | 97 | 1012.1 |
| 20260510080220 | 18 | 155 | 0.0 | 0.0 | 0.00 | 0.00 | 0.00 | 97 | 1012.1 |
| 20260510075717 | 18 | 155 | 0.0 | 0.0 | 0.00 | 0.00 | 0.00 | 97 | 1012.2 |
| 20260510075215 | 18 | 155 | 0.0 | 0.0 | 0.00 | 0.00 | 0.00 | 97 | 1012.3 |
| 20260510074712 | 18 | 155 | 0.0 | 0.0 | 0.00 | 0.00 | 0.00 | 97 | 1012.5 |
| 20260510074208 | 18 | 155 | 0.0 | 0.0 | 0.00 | 0.00 | 0.00 | 97 | 1012.0 |
| 20260510073705 | 18 | 155 | 0.0 | 0.0 | 0.00 | 0.00 | 0.00 | 97 | 1012.2 |
| 20260510073200 | 18 | 155 | 0.0 | 0.0 | 0.00 | 0.00 | 0.00 | 97 | 1012.3 |
| 20260510072657 | 18 | 155 | 0.0 | 0.0 | 0.00 | 0.00 | 0.00 | 97 | 1012.4 |
| 20260510072153 | 18 | 155 | 0.0 | 0.0 | 0.00 | 0.00 | 0.00 | 97 | 1012.2 |
| 20260510071650 | 18 | 155 | 0.0 | 0.0 | 0.00 | 0.00 | 0.00 | 97 | 1012.1 |
| 20260510071147 | 18 | 155 | 0.0 | 0.0 | 0.00 | 0.00 | 0.00 | 97 | 1012.2 |
| 20260510070644 | 18 | 155 | 0.0 | 0.0 | 0.00 | 0.00 | 0.00 | 97 | 1012.2 |
| 20260510070142 | 18 | 155 | 0.0 | 0.0 | 0.00 | 0.00 | 0.00 | 97 | 1012.3 |
| 20260510065637 | 18 | 155 | 0.0 | 0.0 | 0.00 | 0.00 | 0.00 | 97 | 1012.3 |
| 20260510065133 | 18 | 155 | 0.0 | 0.0 | 0.00 | 0.00 | 0.00 | 97 | 1012.0 |
| 20260510064630 | 18 | 155 | 0.0 | 0.0 | 0.00 | 0.00 | 0.00 | 97 | 1012.1 |
| 20260510064127 | 18 | 155 | 0.0 | 0.0 | 0.00 | 0.00 | 0.00 | 97 | 1012.0 |
| 20260510063624 | 18 | 155 | 0.0 | 0.0 | 0.00 | 0.00 | 0.00 | 97 | 1012.1 |
| 20260510063121 | 18 | 156 | 0.0 | 0.0 | 0.00 | 0.00 | 0.00 | 97 | 1012.3 |
| 20260510062616 | 18 | 158 | 3.2 | 4.8 | 0.00 | 0.00 | 0.00 | 97 | 1012.2 |
| 20260510062112 | 18 | 157 | 0.0 | 3.2 | 0.00 | 0.00 | 0.00 | 97 | 1012.2 |
| 20260510061608 | 18 | 161 | 0.0 | 0.0 | 0.00 | 0.00 | 0.00 | 98 | 1012.2 |
| 20260510061106 | 18 | 161 | 0.0 | 0.0 | 0.00 | 0.00 | 0.00 | 98 | 1012.2 |
| 20260510060601 | 18 | 161 | 0.0 | 0.0 | 0.00 | 0.00 | 0.00 | 98 | 1012.1 |
| 20260510060058 | 18 | 161 | 0.0 | 0.0 | 0.00 | 0.00 | 0.00 | 98 | 1012.1 |
| 20260510055549 | 18 | 161 | 0.0 | 0.0 | 0.00 | 0.00 | 0.00 | 98 | 1012.2 |
| 20260510055047 | 18 | 161 | 3.2 | 4.8 | 0.00 | 0.00 | 0.00 | 98 | 1012.6 |
| 20260510054543 | 18 | 161 | 0.0 | 0.0 | 0.00 | 0.00 | 0.00 | 98 | 1012.2 |
| 20260510054038 | 18 | 161 | 0.0 | 0.0 | 0.00 | 0.00 | 0.00 | 98 | 1012.2 |
| 20260510053538 | 18 | 161 | 0.0 | 0.0 | 0.00 | 0.00 | 0.00 | 98 | 1012.2 |
| 20260510053035 | 18 | 161 | 0.0 | 0.0 | 0.00 | 0.00 | 0.00 | 98 | 1012.1 |
| 20260510052531 | 18 | 161 | 0.0 | 0.0 | 0.00 | 0.00 | 0.00 | 98 | 1012.3 |
| 20260510052027 | 18 | 161 | 0.0 | 0.0 | 0.00 | 0.00 | 0.00 | 98 | 1012.5 |
| 20260510051523 | 18 | 161 | 0.0 | 0.0 | 0.00 | 0.00 | 0.00 | 98 | 1012.3 |
| 20260510051019 | 18 | 161 | 0.0 | 0.0 | 0.00 | 0.00 | 0.00 | 98 | 1012.4 |
| 20260510050517 | 18 | 161 | 0.0 | 0.0 | 0.00 | 0.00 | 0.00 | 98 | 1012.3 |
| 20260510050014 | 18 | 161 | 0.0 | 0.0 | 0.00 | 3.12 | 3.12 | 98 | 1012.5 |
| 20260510045511 | 18 | 161 | 0.0 | 0.0 | 0.00 | 3.12 | 3.12 | 98 | 1012.5 |
| 20260510045007 | 18 | 161 | 0.0 | 0.0 | 0.00 | 3.12 | 3.12 | 98 | 1012.5 |
| 20260510044504 | 18 | 161 | 0.0 | 0.0 | 0.00 | 3.12 | 3.12 | 98 | 1012.7 |
| 20260510044001 | 18 | 161 | 0.0 | 0.0 | 0.00 | 3.12 | 3.12 | 98 | 1012.8 |
| 20260510043456 | 18 | 161 | 0.0 | 0.0 | 0.00 | 3.12 | 3.12 | 97 | 1012.8 |
| 20260510042955 | 18 | 161 | 0.0 | 0.0 | 0.00 | 3.12 | 3.12 | 98 | 1012.5 |
| 20260510042451 | 18 | 161 | 0.0 | 0.0 | 0.00 | 3.12 | 3.12 | 98 | 1012.8 |
| 20260510041946 | 18 | 161 | 0.0 | 0.0 | 0.00 | 3.12 | 3.12 | 98 | 1013.0 |
| 20260510041444 | 18 | 161 | 0.0 | 0.0 | 0.00 | 3.12 | 3.12 | 97 | 1012.8 |
| 20260510040942 | 18 | 161 | 0.0 | 0.0 | 0.00 | 3.12 | 3.12 | 97 | 1013.1 |
| 20260510040438 | 18 | 161 | 0.0 | 0.0 | 0.00 | 3.12 | 3.12 | 97 | 1013.0 |
| 20260510035934 | 17 | 161 | 0.0 | 0.0 | 0.00 | 3.12 | 3.12 | 97 | 1012.7 |
| 20260510035431 | 17 | 161 | 0.0 | 0.0 | 0.00 | 3.12 | 3.12 | 97 | 1012.6 |
| 20260510034930 | 18 | 161 | 0.0 | 0.0 | 0.00 | 3.12 | 3.12 | 97 | 1012.8 |
| 20260510034429 | 18 | 161 | 0.0 | 0.0 | 0.00 | 3.12 | 3.12 | 97 | 1012.7 |
| 20260510033925 | 18 | 161 | 0.0 | 0.0 | 0.00 | 3.12 | 3.12 | 97 | 1012.9 |
| 20260510033422 | 18 | 161 | 0.0 | 0.0 | 0.00 | 3.12 | 3.12 | 97 | 1012.8 |
| 20260510032918 | 18 | 161 | 0.0 | 0.0 | 0.00 | 3.12 | 3.12 | 97 | 1012.9 |
| 20260510032415 | 18 | 161 | 0.0 | 0.0 | 0.00 | 3.12 | 3.12 | 97 | 1012.8 |
| 20260510031911 | 18 | 161 | 0.0 | 0.0 | 0.00 | 3.12 | 3.12 | 97 | 1012.8 |
| 20260510031406 | 18 | 161 | 0.0 | 0.0 | 0.00 | 3.12 | 3.12 | 97 | 1012.8 |
| 20260510030900 | 18 | 161 | 0.0 | 0.0 | 0.00 | 3.12 | 3.12 | 97 | 1012.7 |
| 20260510030357 | 18 | 161 | 0.0 | 0.0 | 0.00 | 3.12 | 3.12 | 97 | 1012.8 |
| 20260510025855 | 18 | 161 | 0.0 | 0.0 | 0.00 | 3.12 | 3.12 | 97 | 1012.8 |
| 20260510025352 | 18 | 161 | 0.0 | 0.0 | 0.00 | 3.12 | 3.12 | 97 | 1012.7 |
| 20260510024849 | 19 | 161 | 0.0 | 0.0 | 0.00 | 3.12 | 3.12 | 97 | 1012.4 |
| 20260510024345 | 19 | 161 | 0.0 | 0.0 | 0.00 | 3.12 | 3.12 | 97 | 1012.7 |
| 20260510023842 | 19 | 161 | 0.0 | 0.0 | 0.00 | 3.12 | 3.12 | 96 | 1012.7 |
| 20260510023338 | 19 | 161 | 0.0 | 0.0 | 0.00 | 3.12 | 3.12 | 96 | 1012.9 |
| 20260510022836 | 19 | 161 | 0.0 | 0.0 | 0.00 | 3.12 | 3.12 | 96 | 1012.5 |
| 20260510022335 | 19 | 161 | 0.0 | 0.0 | 0.00 | 3.12 | 3.12 | 96 | 1012.7 |
| 20260510021834 | 19 | 161 | 0.0 | 0.0 | 0.00 | 3.12 | 3.12 | 96 | 1012.5 |
| 20260510021332 | 20 | 161 | 0.0 | 0.0 | 0.00 | 3.12 | 3.12 | 96 | 1012.6 |
| 20260510020829 | 20 | 161 | 0.0 | 0.0 | 0.00 | 3.12 | 3.12 | 96 | 1012.5 |
| 20260510020328 | 20 | 161 | 0.0 | 0.0 | 0.00 | 3.12 | 3.12 | 97 | 1012.6 |
| 20260510015824 | 20 | 161 | 0.0 | 0.0 | 0.00 | 3.12 | 3.12 | 96 | 1012.4 |
| 20260510015321 | 20 | 161 | 0.0 | 0.0 | 0.00 | 3.12 | 3.12 | 97 | 1012.4 |
| 20260510014816 | 20 | 161 | 0.0 | 0.0 | 0.00 | 3.12 | 3.12 | 96 | 1012.2 |
| 20260510014314 | 20 | 161 | 0.0 | 0.0 | 0.00 | 3.12 | 3.12 | 96 | 1012.1 |
| 20260510013810 | 20 | 161 | 0.0 | 0.0 | 0.00 | 3.12 | 3.12 | 96 | 1012.1 |
| 20260510013306 | 20 | 161 | 0.0 | 0.0 | 0.00 | 3.12 | 3.12 | 96 | 1011.9 |
| 20260510012801 | 20 | 161 | 0.0 | 0.0 | 0.00 | 3.12 | 3.12 | 96 | 1012.1 |
| 20260510012301 | 20 | 161 | 0.0 | 0.0 | 0.00 | 3.12 | 3.12 | 96 | 1012.1 |
| 20260510011800 | 20 | 161 | 0.0 | 0.0 | 0.00 | 3.12 | 3.12 | 96 | 1011.7 |
| 20260510011256 | 20 | 161 | 0.0 | 0.0 | 0.00 | 3.12 | 3.12 | 96 | 1011.8 |
| 20260510010753 | 20 | 161 | 0.0 | 0.0 | 0.00 | 3.12 | 3.12 | 96 | 1011.6 |
| 20260510010250 | 20 | 161 | 0.0 | 0.0 | 0.00 | 3.12 | 3.12 | 96 | 1011.4 |
| 20260510005747 | 20 | 161 | 0.0 | 0.0 | 0.00 | 3.12 | 3.12 | 96 | 1011.2 |
| 20260510005243 | 20 | 161 | 0.0 | 0.0 | 0.00 | 3.12 | 3.12 | 96 | 1011.3 |
| 20260510004741 | 20 | 161 | 0.0 | 0.0 | 0.00 | 3.12 | 3.12 | 96 | 1011.1 |
| 20260510004239 | 20 | 161 | 0.0 | 0.0 | 0.00 | 3.12 | 3.12 | 96 | 1011.1 |
| 20260510003736 | 20 | 161 | 0.0 | 0.0 | 0.00 | 3.12 | 3.12 | 96 | 1011.1 |
| 20260510003232 | 20 | 161 | 0.0 | 0.0 | 0.00 | 3.12 | 3.12 | 96 | 1011.0 |
| 20260510002731 | 20 | 161 | 0.0 | 0.0 | 0.00 | 3.12 | 3.12 | 96 | 1011.1 |
| 20260510002228 | 20 | 161 | 0.0 | 0.0 | 0.00 | 3.12 | 3.12 | 96 | 1010.7 |
| 20260510001725 | 20 | 161 | 0.0 | 0.0 | 0.00 | 3.12 | 3.12 | 95 | 1010.9 |
| 20260510001224 | 20 | 161 | 0.0 | 0.0 | 0.00 | 3.12 | 3.12 | 95 | 1010.4 |
| 20260510000719 | 21 | 161 | 0.0 | 0.0 | 0.00 | 3.12 | 3.12 | 95 | 1010.4 |
| 20260510000218 | 21 | 161 | 1.6 | 3.2 | 0.00 | 3.12 | 3.12 | 95 | 1010.7 |
| 20260509235714 | 21 | 161 | 0.0 | 0.0 | 0.00 | 3.12 | 3.12 | 95 | 1010.4 |
| 20260509235210 | 21 | 161 | 0.0 | 0.0 | 0.00 | 3.12 | 3.12 | 95 | 1010.3 |
| 20260509234706 | 21 | 161 | 0.0 | 3.2 | 0.00 | 3.12 | 3.12 | 95 | 1010.5 |
| 20260509234203 | 21 | 161 | 0.0 | 0.0 | 0.00 | 3.12 | 3.12 | 94 | 1010.4 |
| 20260509233701 | 21 | 161 | 0.0 | 0.0 | 0.00 | 3.12 | 3.12 | 94 | 1010.7 |
| 20260509233159 | 21 | 161 | 0.0 | 3.2 | 0.00 | 3.12 | 3.12 | 94 | 1010.5 |
| 20260509232654 | 21 | 161 | 3.2 | 3.2 | 0.00 | 3.12 | 3.12 | 94 | 1010.2 |
| 20260509232151 | 21 | 161 | 0.0 | 0.0 | 0.00 | 3.12 | 3.12 | 94 | 1010.6 |
| 20260509231648 | 21 | 161 | 0.0 | 0.0 | 0.00 | 3.12 | 3.12 | 94 | 1010.4 |
| 20260509231145 | 21 | 161 | 0.0 | 0.0 | 0.00 | 3.12 | 3.12 | 93 | 1010.4 |
| 20260509230642 | 21 | 161 | 0.0 | 0.0 | 0.00 | 3.12 | 3.12 | 93 | 1010.3 |
| 20260509230139 | 22 | 161 | 0.0 | 0.0 | 0.00 | 3.12 | 3.12 | 92 | 1010.3 |
| 20260509225635 | 22 | 161 | 0.0 | 0.0 | 0.00 | 3.12 | 3.12 | 92 | 1010.2 |
| 20260509225131 | 22 | 161 | 0.0 | 0.0 | 0.00 | 3.12 | 3.12 | 92 | 1010.4 |
| 20260509224626 | 22 | 161 | 0.0 | 3.2 | 0.00 | 3.12 | 3.12 | 91 | 1010.3 |
| 20260509224123 | 22 | 161 | 0.0 | 0.0 | 0.00 | 3.12 | 3.12 | 91 | 1010.4 |
| 20260509223620 | 22 | 161 | 3.2 | 3.2 | 0.00 | 3.12 | 3.12 | 91 | 1010.2 |
| 20260509223118 | 22 | 161 | 3.2 | 3.2 | 0.00 | 3.12 | 3.12 | 90 | 1010.4 |
| 20260509222614 | 22 | 161 | 3.2 | 3.2 | 0.00 | 3.12 | 3.12 | 90 | 1010.1 |
| 20260509222110 | 22 | 161 | 0.0 | 0.0 | 0.00 | 3.12 | 3.12 | 90 | 1010.2 |
| 20260509221606 | 22 | 161 | 3.2 | 3.2 | 0.00 | 3.12 | 3.12 | 90 | 1010.2 |
| 20260509221102 | 22 | 161 | 0.0 | 0.0 | 0.00 | 3.12 | 3.12 | 91 | 1010.1 |
| 20260509220558 | 22 | 161 | 0.0 | 0.0 | 0.00 | 3.12 | 3.12 | 91 | 1010.1 |
| 20260509220054 | 22 | 161 | 0.0 | 0.0 | 0.00 | 3.12 | 3.12 | 89 | 1010.4 |
| 20260509215549 | 22 | 161 | 0.0 | 0.0 | 0.00 | 3.12 | 3.12 | 88 | 1010.4 |
| 20260509215047 | 22 | 161 | 0.0 | 0.0 | 0.00 | 3.12 | 3.12 | 90 | 1010.4 |
| 20260509214544 | 22 | 161 | 0.0 | 0.0 | 0.00 | 3.12 | 3.12 | 89 | 1010.1 |
| 20260509214041 | 22 | 161 | 0.0 | 0.0 | 0.00 | 3.12 | 3.12 | 86 | 1009.9 |
| 20260509213537 | 22 | 161 | 0.0 | 3.2 | 0.00 | 3.12 | 3.12 | 87 | 1009.7 |
| 20260509213034 | 22 | 161 | 3.2 | 4.8 | 0.00 | 3.12 | 3.12 | 86 | 1010.0 |
| 20260509212531 | 22 | 161 | 4.8 | 4.8 | 0.00 | 3.12 | 3.12 | 84 | 1010.3 |
| 20260509212028 | 23 | 161 | 1.6 | 3.2 | 0.00 | 3.12 | 3.12 | 85 | 1010.5 |
| 20260509211524 | 23 | 161 | 0.0 | 0.0 | 0.00 | 3.12 | 3.12 | 85 | 1009.9 |
| 20260509211021 | 23 | 161 | 3.2 | 3.2 | 0.00 | 3.12 | 3.12 | 85 | 1009.8 |
| 20260509210518 | 23 | 161 | 3.2 | 3.2 | 0.00 | 3.12 | 3.12 | 84 | 1009.8 |
| 20260509210014 | 23 | 161 | 0.0 | 0.0 | 0.00 | 3.12 | 3.12 | 82 | 1009.5 |
| 20260509205508 | 23 | 161 | 3.2 | 4.8 | 0.00 | 3.12 | 3.12 | 82 | 1009.7 |
| 20260509205004 | 23 | 161 | 4.8 | 4.8 | 0.00 | 3.12 | 3.12 | 83 | 1009.9 |
| 20260509204500 | 23 | 160 | 0.0 | 0.0 | 0.00 | 3.12 | 3.12 | 81 | 1009.6 |
| 20260509203957 | 22 | 160 | 0.0 | 0.0 | 0.00 | 3.12 | 3.12 | 85 | 1010.3 |
| 20260509203452 | 22 | 160 | 0.0 | 3.2 | 0.00 | 3.12 | 3.12 | 84 | 1010.1 |
| 20260509202950 | 22 | 160 | 3.2 | 3.2 | 0.00 | 3.12 | 3.12 | 85 | 1010.1 |
| 20260509202446 | 22 | 160 | 0.0 | 0.0 | 0.00 | 3.12 | 3.12 | 83 | 1010.1 |
| 20260509201941 | 22 | 160 | 3.2 | 3.2 | 0.00 | 3.12 | 3.12 | 84 | 1010.0 |
| 20260509201437 | 22 | 160 | 0.0 | 0.0 | 0.00 | 3.12 | 3.12 | 87 | 1009.8 |
| 20260509200934 | 22 | 159 | 0.0 | 0.0 | 0.00 | 3.12 | 3.12 | 86 | 1009.9 |
| 20260509200434 | 22 | 158 | 4.8 | 4.8 | 0.00 | 3.12 | 3.12 | 85 | 1010.0 |
| 20260509195931 | 22 | 108 | 4.8 | 4.8 | 0.00 | 3.12 | 3.12 | 87 | 1010.3 |
| 20260509195427 | 22 | 102 | 0.0 | 0.0 | 0.00 | 3.12 | 3.12 | 86 | 1010.3 |
| 20260509194926 | 22 | 102 | 0.0 | 0.0 | 0.00 | 3.12 | 3.12 | 88 | 1010.4 |
| 20260509194422 | 22 | 102 | 0.0 | 0.0 | 0.00 | 3.12 | 3.12 | 86 | 1010.2 |
| 20260509193920 | 22 | 25 | 0.0 | 0.0 | 0.00 | 3.12 | 3.12 | 87 | 1010.5 |
| 20260509193419 | 22 | 25 | 0.0 | 0.0 | 0.00 | 3.12 | 3.12 | 86 | 1010.5 |
| 20260509192915 | 22 | 25 | 0.0 | 0.0 | 0.00 | 3.12 | 3.12 | 88 | 1010.6 |
| 20260509192411 | 22 | 25 | 0.0 | 0.0 | 0.00 | 3.12 | 3.12 | 89 | 1010.4 |
| 20260509191907 | 21 | 25 | 0.0 | 0.0 | 0.00 | 3.12 | 3.12 | 89 | 1010.5 |
| 20260509191403 | 21 | 25 | 0.0 | 0.0 | 0.00 | 3.12 | 3.12 | 90 | 1010.3 |
| 20260509190859 | 21 | 25 | 0.0 | 0.0 | 0.00 | 3.12 | 3.12 | 91 | 1010.3 |
| 20260509190356 | 21 | 25 | 0.0 | 0.0 | 0.00 | 3.12 | 3.12 | 93 | 1010.4 |
| 20260509185853 | 21 | 24 | 0.0 | 0.0 | 0.00 | 3.12 | 3.12 | 93 | 1010.2 |
| 20260509185350 | 21 | 24 | 3.2 | 4.8 | 0.00 | 3.12 | 3.12 | 93 | 1010.4 |
| 20260509184847 | 21 | 25 | 0.0 | 0.0 | 0.00 | 3.12 | 3.12 | 93 | 1010.3 |
| 20260509184344 | 21 | 25 | 4.8 | 4.8 | 0.00 | 3.12 | 3.12 | 93 | 1010.7 |
| 20260509183841 | 21 | 33 | 0.0 | 0.0 | 0.00 | 3.12 | 3.12 | 93 | 1010.4 |
| 20260509183336 | 21 | 33 | 1.6 | 3.2 | 0.00 | 3.12 | 3.12 | 92 | 1010.7 |
| 20260509182832 | 21 | 47 | 0.0 | 0.0 | 0.00 | 3.12 | 3.12 | 91 | 1010.5 |
| 20260509182329 | 21 | 161 | 0.0 | 0.0 | 0.00 | 3.12 | 3.12 | 92 | 1010.8 |
| 20260509181827 | 21 | 161 | 0.0 | 0.0 | 0.00 | 3.12 | 3.12 | 90 | 1010.7 |
| 20260509181324 | 21 | 161 | 0.0 | 0.0 | 0.00 | 3.12 | 3.12 | 90 | 1011.0 |
| 20260509180821 | 21 | 161 | 0.0 | 0.0 | 0.00 | 3.12 | 3.12 | 89 | 1011.0 |
| 20260509180317 | 21 | 161 | 4.8 | 4.8 | 0.00 | 3.12 | 3.12 | 89 | 1011.2 |
| 20260509175814 | 21 | 156 | 0.0 | 0.0 | 0.00 | 3.12 | 3.12 | 91 | 1011.2 |
| 20260509175310 | 21 | 156 | 0.0 | 3.2 | 0.00 | 3.12 | 3.12 | 89 | 1010.9 |
| 20260509174806 | 21 | 156 | 4.8 | 4.8 | 0.00 | 3.12 | 3.12 | 89 | 1011.1 |
| 20260509174302 | 21 | 156 | 0.0 | 0.0 | 0.00 | 3.12 | 3.12 | 90 | 1011.2 |
| 20260509173758 | 21 | 135 | 4.8 | 4.8 | 0.00 | 3.12 | 3.12 | 91 | 1011.4 |
| 20260509173253 | 21 | 146 | 8.0 | 8.0 | 0.00 | 3.12 | 3.12 | 90 | 1011.4 |
| 20260509172749 | 21 | 90 | 1.6 | 4.8 | 0.00 | 3.12 | 3.12 | 92 | 1011.8 |
| 20260509172247 | 21 | 144 | 0.0 | 0.0 | 0.00 | 3.12 | 3.12 | 91 | 1011.6 |
| 20260509171742 | 21 | 144 | 4.8 | 4.8 | 0.00 | 3.12 | 3.12 | 91 | 1011.9 |
| 20260509171238 | 21 | 144 | 0.0 | 0.0 | 0.00 | 3.12 | 3.12 | 91 | 1011.8 |
| 20260509170735 | 21 | 144 | 0.0 | 0.0 | 0.00 | 3.12 | 3.12 | 92 | 1012.0 |
| 20260509170231 | 21 | 145 | 0.0 | 0.0 | 0.00 | 3.12 | 3.12 | 92 | 1012.1 |
| 20260509165730 | 21 | 113 | 0.0 | 0.0 | 0.00 | 3.12 | 3.12 | 91 | 1011.8 |
| 20260509165225 | 21 | 104 | 0.0 | 0.0 | 0.00 | 3.12 | 3.12 | 92 | 1012.1 |